Time;durP1;ratioP1;P1;durP2;ratioP2;P2;SDS_P1;SDS_P2;PMS_P1;PMS_P2;Temp;Humidity;BMP_temperature;BMP_pressure;BME280_temperature;BME280_humidity;BME280_pressure;Samples;Min_cycle;Max_cycle;Signal;HPM_P1;HPM_P2
2022/06/28 00:01:52;;;;;;;18.42;8.98;;;;;;;20.73;100.00;99922.22;1645411;87;21080;-85
2022/06/28 00:04:19;;;;;;;23.05;12.33;;;;;;;20.69;100.00;99919.12;1622622;88;21080;-83
2022/06/28 00:06:46;;;;;;;34.55;20.30;;;;;;;20.67;100.00;99922.65;1622486;88;21128;-83
2022/06/28 00:09:14;;;;;;;39.10;24.95;;;;;;;20.64;100.00;99922.58;1622320;88;21104;-84
2022/06/28 00:11:44;;;;;;;32.55;16.02;;;;;;;20.61;100.00;99922.19;1608548;88;21047;-84
2022/06/28 00:16:57;;;;;;;20.43;10.00;;;;;;;20.55;100.00;99924.53;1598612;90;21577;-84
2022/06/28 00:19:24;;;;;;;19.80;8.55;;;;;;;20.51;100.00;99923.36;1598550;90;21628;-83
2022/06/28 00:21:51;;;;;;;15.20;7.67;;;;;;;20.48;100.00;99916.41;1598394;90;21073;-82
2022/06/28 00:24:19;;;;;;;32.30;18.50;;;;;;;20.43;100.00;99910.28;1598476;90;21069;-82
2022/06/28 00:26:46;;;;;;;90.75;49.10;;;;;;;20.39;100.00;99908.24;1598139;89;21141;-83
2022/06/28 00:29:13;;;;;;;169.10;99.72;;;;;;;20.33;100.00;99907.30;1598358;90;21065;-83
2022/06/28 00:31:40;;;;;;;74.58;45.92;;;;;;;20.28;100.00;99905.25;1598587;90;21045;-82
2022/06/28 00:34:07;;;;;;;64.65;39.20;;;;;;;20.23;100.00;99902.92;1598266;90;21041;-84
2022/06/28 00:36:33;;;;;;;158.63;83.67;;;;;;;20.18;100.00;99905.55;1598325;90;21172;-84
2022/06/28 00:39:00;;;;;;;278.73;143.70;;;;;;;20.12;100.00;99905.14;1598242;90;21094;-83
2022/06/28 00:41:27;;;;;;;630.90;369.95;;;;;;;20.07;100.00;99899.80;1598318;88;21050;-82
2022/06/28 00:43:54;;;;;;;410.05;209.87;;;;;;;20.05;100.00;99906.62;1598337;90;21156;-83
2022/06/28 00:46:21;;;;;;;420.48;214.38;;;;;;;20.02;100.00;99909.28;1598141;90;21056;-83
2022/06/28 00:48:48;;;;;;;286.60;146.82;;;;;;;20.01;100.00;99915.00;1598205;90;21082;-83
2022/06/28 00:51:14;;;;;;;196.02;106.60;;;;;;;19.99;100.00;99916.64;1598477;90;21113;-84
2022/06/28 00:53:41;;;;;;;70.05;37.70;;;;;;;19.96;100.00;99911.61;1604029;87;21596;-84
2022/06/28 00:56:08;;;;;;;40.85;19.20;;;;;;;19.93;100.00;99908.50;1628875;88;21074;-82
2022/06/28 00:58:35;;;;;;;26.95;12.88;;;;;;;19.88;100.00;99910.57;1658558;86;21082;-83
2022/06/28 01:01:02;;;;;;;29.00;12.23;;;;;;;19.86;100.00;99915.46;1628837;88;21073;-85
2022/06/28 01:03:29;;;;;;;64.70;34.05;;;;;;;19.83;100.00;99914.04;1628485;88;21040;-85
2022/06/28 01:05:57;;;;;;;95.35;55.63;;;;;;;19.79;100.00;99908.70;1628883;87;21036;-85
2022/06/28 01:08:26;;;;;;;91.63;54.33;;;;;;;19.77;100.00;99908.65;1663228;84;21069;-84
2022/06/28 01:10:54;;;;;;;103.50;62.27;;;;;;;19.73;100.00;99907.73;1662728;86;21066;-82
2022/06/28 01:13:21;;;;;;;81.53;49.98;;;;;;;19.72;100.00;99906.56;1611795;88;21598;-83
2022/06/28 01:15:49;;;;;;;83.50;50.03;;;;;;;19.70;100.00;99904.59;1655589;86;21063;-84
2022/06/28 01:18:15;;;;;;;110.17;65.72;;;;;;;19.66;100.00;99908.34;1663455;86;21099;-84
2022/06/28 01:20:47;;;;;;;68.00;40.95;;;;;;;19.65;100.00;99908.58;1639966;86;21070;-84
2022/06/28 01:23:17;;;;;;;77.08;46.80;;;;;;;19.63;100.00;99912.09;1594199;90;21571;-83
2022/06/28 01:25:45;;;;;;;67.40;40.67;;;;;;;19.61;100.00;99908.20;1576624;91;21682;-85
2022/06/28 01:28:14;;;;;;;47.23;25.77;;;;;;;19.59;100.00;99908.98;1593902;90;21114;-83
2022/06/28 01:30:41;;;;;;;24.27;12.25;;;;;;;19.56;100.00;99909.44;1594120;90;21496;-85
2022/06/28 01:33:10;;;;;;;22.52;9.80;;;;;;;19.54;100.00;99910.21;1573553;91;21098;-83
2022/06/28 01:35:36;;;;;;;63.25;38.30;;;;;;;19.51;100.00;99907.93;1594141;90;21049;-83
2022/06/28 01:38:03;;;;;;;72.50;43.70;;;;;;;19.48;100.00;99901.56;1594150;90;21110;-84
2022/06/28 01:40:32;;;;;;;77.22;48.92;;;;;;;19.46;100.00;99899.56;1556908;91;21121;-84
2022/06/28 01:43:00;;;;;;;69.45;43.92;;;;;;;19.44;100.00;99908.05;1594093;89;21057;-83
2022/06/28 01:45:29;;;;;;;158.87;95.60;;;;;;;19.42;100.00;99909.33;1594295;90;21637;-82
2022/06/28 01:47:56;;;;;;;70.70;45.12;;;;;;;19.40;100.00;99915.59;1593890;90;21105;-84
2022/06/28 01:50:26;;;;;;;72.80;43.02;;;;;;;19.36;100.00;99904.25;1593832;90;21082;-85
2022/06/28 01:52:54;;;;;;;56.83;31.62;;;;;;;19.35;100.00;99903.94;1593873;90;21124;-85
2022/06/28 01:55:34;;;;;;;28.38;15.43;;;;;;;19.33;100.00;99897.85;1571027;91;21038;-86
2022/06/28 01:58:03;;;;;;;24.67;12.33;;;;;;;19.30;100.00;99897.80;1561246;92;21152;-85
2022/06/28 02:00:32;;;;;;;68.25;38.25;;;;;;;19.28;100.00;99899.94;1586174;89;21123;-85
2022/06/28 02:02:59;;;;;;;144.62;79.62;;;;;;;19.27;100.00;99897.42;1606287;89;21561;-84
2022/06/28 02:05:46;;;;;;;97.12;58.95;;;;;;;19.24;100.00;99888.29;1605909;89;21092;-84
2022/06/28 02:08:13;;;;;;;63.65;41.13;;;;;;;19.21;100.00;99896.97;1605338;89;21533;-84
2022/06/28 02:10:45;;;;;;;57.10;35.88;;;;;;;19.18;100.00;99890.59;1553531;92;21179;-86
2022/06/28 02:13:12;;;;;;;29.70;18.67;;;;;;;19.15;100.00;99886.40;1578805;91;21076;-85
2022/06/28 02:15:39;;;;;;;29.32;14.38;;;;;;;19.11;100.00;99883.83;1564615;91;21072;-83
2022/06/28 02:18:07;;;;;;;103.70;54.13;;;;;;;19.08;100.00;99882.38;1548900;93;21072;-84
2022/06/28 02:20:34;;;;;;;124.90;67.95;;;;;;;19.07;100.00;99879.86;1548343;93;21133;-82
2022/06/28 02:23:01;;;;;;;100.72;57.33;;;;;;;19.07;100.00;99882.09;1548533;93;21145;-83
2022/06/28 02:25:29;;;;;;;109.03;68.05;;;;;;;19.07;100.00;99877.12;1548445;93;21198;-84
2022/06/28 02:27:56;;;;;;;85.10;55.33;;;;;;;19.07;100.00;99884.83;1548469;93;21649;-83
2022/06/28 02:30:23;;;;;;;90.00;56.95;;;;;;;19.07;100.00;99880.72;1548657;91;21119;-83
2022/06/28 02:32:49;;;;;;;111.17;70.87;;;;;;;19.08;100.00;99882.91;1576618;90;21074;-84
2022/06/28 02:40:47;;;;;;;154.40;72.95;;;;;;;19.06;100.00;99883.14;1587763;90;21037;-82
2022/06/28 02:43:14;;;;;;;96.60;49.30;;;;;;;19.06;100.00;99883.14;1571478;91;21111;-83
2022/06/28 02:45:42;;;;;;;122.62;63.63;;;;;;;19.07;100.00;99890.81;1571619;91;21655;-83
2022/06/28 02:48:09;;;;;;;162.15;82.67;;;;;;;19.06;100.00;99880.94;1573628;91;21082;-83
2022/06/28 02:50:35;;;;;;;134.70;70.40;;;;;;;19.06;100.00;99883.14;1574139;90;21103;-83
2022/06/28 02:53:02;;;;;;;98.42;54.20;;;;;;;19.06;100.00;99887.25;1573050;90;21582;-84
2022/06/28 02:55:30;;;;;;;116.22;52.27;;;;;;;19.05;100.00;99875.14;1572238;91;21083;-84
2022/06/28 02:57:57;;;;;;;146.98;62.62;;;;;;;19.03;100.00;99882.22;1571248;91;21154;-83
2022/06/28 03:00:24;;;;;;;156.40;68.42;;;;;;;19.03;100.00;99886.87;1571637;91;21019;-85
2022/06/28 03:02:51;;;;;;;103.95;49.05;;;;;;;19.01;100.00;99877.52;1571412;91;21111;-82
2022/06/28 03:05:21;;;;;;;83.07;41.63;;;;;;;19.02;100.00;99889.33;1571228;91;21659;-82
2022/06/28 03:07:49;;;;;;;275.07;138.07;;;;;;;19.02;100.00;99890.70;1603543;89;21034;-82
2022/06/28 03:10:19;;;;;;;218.25;108.52;;;;;;;19.02;100.00;99883.85;1631313;87;21536;-83
2022/06/28 03:12:47;;;;;;;210.97;107.55;;;;;;;19.03;100.00;99893.19;1650165;87;21059;-82
2022/06/28 03:15:15;;;;;;;174.53;93.30;;;;;;;19.04;100.00;99889.93;1696007;84;21017;-82
2022/06/28 03:17:43;;;;;;;105.20;61.55;;;;;;;19.06;100.00;99891.36;1648295;87;21030;-83
2022/06/28 03:20:11;;;;;;;134.78;76.60;;;;;;;19.06;100.00;99894.64;1655486;87;21547;-83
2022/06/28 03:22:38;;;;;;;71.87;40.67;;;;;;;19.07;100.00;99895.79;1648133;87;21021;-82
2022/06/28 03:25:07;;;;;;;40.98;23.05;;;;;;;19.08;100.00;99892.50;1655248;87;21802;-82
2022/06/28 03:27:34;;;;;;;35.38;19.27;;;;;;;19.11;100.00;99905.75;1647912;87;21132;-81
2022/06/28 03:30:01;;;;;;;27.22;13.48;;;;;;;19.15;100.00;99908.33;1655212;87;21603;-82
2022/06/28 03:32:29;;;;;;;28.73;13.93;;;;;;;19.21;100.00;99905.19;1618955;87;21034;-81
2022/06/28 03:34:56;;;;;;;120.90;63.90;;;;;;;19.27;100.00;99904.28;1655203;87;21123;-83
2022/06/28 03:37:24;;;;;;;211.97;111.97;;;;;;;19.33;100.00;99908.28;1648019;87;21073;-82
2022/06/28 03:39:52;;;;;;;513.55;240.80;;;;;;;19.41;100.00;99906.31;1651003;87;21105;-83
2022/06/28 03:42:20;;;;;;;210.17;97.78;;;;;;;19.48;100.00;99908.42;1648208;87;21033;-82
2022/06/28 03:44:47;;;;;;;255.90;108.07;;;;;;;19.55;100.00;99911.91;1655313;87;21041;-82
2022/06/28 03:47:14;;;;;;;186.82;96.35;;;;;;;19.61;100.00;99916.44;1648161;87;21583;-84
2022/06/28 03:49:43;;;;;;;436.77;180.78;;;;;;;19.67;100.00;99918.26;1655399;87;21065;-81
2022/06/28 03:52:12;;;;;;;176.45;79.07;;;;;;;19.75;100.00;99923.14;1570411;91;21082;-81
2022/06/28 03:54:49;;;;;;;109.72;53.17;;;;;;;19.82;100.00;99930.73;1569623;91;21545;-82
2022/06/28 03:57:19;;;;;;;171.62;84.22;;;;;;;19.90;100.00;99939.47;1598717;88;21096;-80
2022/06/28 03:59:46;;;;;;;598.33;205.83;;;;;;;19.95;100.00;99940.11;1569933;91;21090;-82
2022/06/28 04:02:13;;;;;;;82.75;39.18;;;;;;;20.00;100.00;99934.76;1595408;90;21151;-81
2022/06/28 04:04:40;;;;;;;75.97;39.63;;;;;;;20.07;100.00;99940.97;1569875;91;21079;-80
2022/06/28 04:07:07;;;;;;;87.12;45.75;;;;;;;20.16;100.00;99936.52;1595468;90;21061;-80
2022/06/28 04:09:34;;;;;;;106.10;59.48;;;;;;;20.25;100.00;99936.46;1572660;90;21102;-83
2022/06/28 04:12:02;;;;;;;59.18;34.98;;;;;;;20.34;100.00;99933.66;1590700;89;21068;-82
2022/06/28 04:14:30;;;;;;;58.08;34.30;;;;;;;20.44;100.00;99942.14;1605841;89;21542;-81
2022/06/28 04:16:57;;;;;;;34.60;18.60;;;;;;;20.57;100.00;99942.98;1575560;91;21056;-84
2022/06/28 04:19:27;;;;;;;50.55;27.13;;;;;;;20.67;100.00;99945.45;1578721;90;21127;-81
2022/06/28 04:21:53;;;;;;;58.60;40.63;;;;;;;20.80;100.00;99943.53;1575626;91;21105;-81
2022/06/28 04:24:22;;;;;;;76.28;50.73;;;;;;;20.91;100.00;99947.34;1575578;91;21111;-83
2022/06/28 04:26:50;;;;;;;46.08;28.52;;;;;;;21.06;100.00;99951.80;1578714;90;21114;-82
2022/06/28 04:29:19;;;;;;;52.75;35.08;;;;;;;21.20;100.00;99965.56;1575573;91;21104;-80
2022/06/28 04:31:46;;;;;;;99.20;69.60;;;;;;;21.36;100.00;99966.72;1575803;89;21126;-80
2022/06/28 04:34:13;;;;;;;41.58;26.23;;;;;;;21.54;100.00;99973.97;1573388;91;21061;-81
2022/06/28 04:36:42;;;;;;;40.38;26.30;;;;;;;21.73;100.00;99977.92;1580705;90;21127;-82
2022/06/28 04:39:09;;;;;;;35.50;23.85;;;;;;;21.89;100.00;99992.80;1575793;91;21109;-82
2022/06/28 04:41:38;;;;;;;70.03;31.02;;;;;;;21.98;100.00;99989.94;1573773;90;21105;-82
2022/06/28 04:44:09;;;;;;;201.42;81.63;;;;;;;22.16;100.00;99985.56;1601225;89;21071;-82
2022/06/28 04:46:39;;;;;;;151.47;70.97;;;;;;;22.35;100.00;99987.58;1601380;88;21091;-85
2022/06/28 04:49:07;;;;;;;39.48;19.98;;;;;;;22.54;100.00;99992.82;1575555;90;21130;-82
2022/06/28 04:51:35;;;;;;;28.60;13.45;;;;;;;22.70;100.00;100001.64;1572242;90;21635;-82
2022/06/28 04:54:02;;;;;;;21.07;9.93;;;;;;;22.84;100.00;100000.75;1572652;91;21125;-84
2022/06/28 04:56:31;;;;;;;22.85;10.82;;;;;;;22.99;100.00;99999.30;1598778;89;21106;-83
2022/06/28 04:58:59;;;;;;;24.52;11.05;;;;;;;23.12;100.00;100005.31;1567883;91;21151;-83
2022/06/28 05:01:26;;;;;;;26.57;11.73;;;;;;;23.26;100.00;100007.13;1598587;90;21610;-83
2022/06/28 05:03:52;;;;;;;26.97;13.05;;;;;;;23.38;100.00;100015.28;1598015;90;21061;-77
2022/06/28 05:06:39;;;;;;;26.80;13.35;;;;;;;23.51;100.00;100015.44;1597728;89;21049;-76
2022/06/28 05:09:06;;;;;;;33.42;18.80;;;;;;;23.74;100.00;100017.08;1600110;88;21198;-75
2022/06/28 05:11:35;;;;;;;161.90;91.70;;;;;;;23.98;100.00;100014.08;1606343;87;21077;-77
2022/06/28 05:14:16;;;;;;;41.45;24.07;;;;;;;24.07;100.00;100028.52;1592277;89;21136;-75
2022/06/28 05:16:44;;;;;;;29.15;17.40;;;;;;;24.06;100.00;100036.53;1614837;87;21057;-76
2022/06/28 05:19:23;;;;;;;21.33;10.68;;;;;;;24.14;100.00;100033.84;1624323;87;21061;-77
2022/06/28 05:21:50;;;;;;;52.67;33.02;;;;;;;24.29;100.00;100040.59;1639541;86;21049;-78
2022/06/28 05:24:18;;;;;;;44.60;24.95;;;;;;;24.40;100.00;100029.39;1623754;88;21553;-81
2022/06/28 05:26:46;;;;;;;118.15;73.40;;;;;;;24.63;100.00;100030.98;1646610;85;21021;-82
2022/06/28 05:29:17;;;;;;;84.52;48.45;;;;;;;24.76;100.00;100034.39;1635840;87;21089;-79
2022/06/28 05:31:45;;;;;;;163.05;97.33;;;;;;;24.75;100.00;100033.55;1633188;87;21090;-77
2022/06/28 05:34:11;;;;;;;460.63;228.50;;;;;;;24.83;100.00;100030.30;1630103;87;21054;-76
2022/06/28 05:36:39;;;;;;;787.67;441.88;;;;;;;25.06;100.00;100028.80;1615919;88;21085;-78
2022/06/28 05:39:08;;;;;;;399.92;208.30;;;;;;;25.17;100.00;100037.42;1618235;88;22101;-80
2022/06/28 05:41:36;;;;;;;677.45;350.77;;;;;;;25.15;100.00;100039.63;1609435;88;21038;-81
2022/06/28 05:44:03;;;;;;;262.98;165.30;;;;;;;25.19;100.00;100041.57;1616455;88;21057;-80
2022/06/28 05:46:32;;;;;;;166.00;87.05;;;;;;;25.17;100.00;100043.78;1585002;91;21050;-81
2022/06/28 05:49:00;;;;;;;62.53;33.15;;;;;;;25.23;100.00;100043.81;1609895;89;21039;-80
2022/06/28 05:51:29;;;;;;;32.75;15.80;;;;;;;25.33;100.00;100043.90;1619298;89;21075;-79
2022/06/28 05:53:56;;;;;;;27.50;11.22;;;;;;;25.44;100.00;100044.78;1619194;89;21115;-80
2022/06/28 05:56:24;;;;;;;123.65;74.32;;;;;;;25.51;100.00;100043.42;1621047;89;21130;-81
2022/06/28 05:58:51;;;;;;;94.90;56.00;;;;;;;25.52;100.00;100041.50;1621072;88;21017;-78
2022/06/28 06:01:19;;;;;;;65.10;38.48;;;;;;;25.55;100.00;100035.41;1622171;88;21161;-77
2022/06/28 06:03:46;;;;;;;112.70;63.17;;;;;;;25.66;100.00;100038.52;1620726;89;21131;-76
2022/06/28 06:06:13;;;;;;;60.45;36.70;;;;;;;25.89;100.00;100034.98;1609051;88;21099;-77
2022/06/28 06:08:41;;;;;;;39.45;21.77;;;;;;;26.20;100.00;100036.45;1592506;89;21068;-75
2022/06/28 06:11:09;;;;;;;33.30;12.20;;;;;;;26.50;100.00;100040.63;1615585;86;21084;-75
2022/06/28 06:13:37;;;;;;;44.93;24.65;;;;;;;26.74;100.00;100035.09;1683222;84;21042;-77
2022/06/28 06:16:04;;;;;;;85.77;52.88;;;;;;;26.99;100.00;100039.80;1660009;85;21100;-76
2022/06/28 06:18:31;;;;;;;37.50;22.48;;;;;;;27.01;100.00;100041.17;1647040;85;21080;-77
2022/06/28 06:20:58;;;;;;;27.52;14.70;;;;;;;27.01;100.00;100043.94;1647528;87;21092;-77
2022/06/28 06:23:26;;;;;;;25.30;14.35;;;;;;;27.13;100.00;100042.27;1654701;87;21059;-77
2022/06/28 06:26:05;;;;;;;49.08;31.35;;;;;;;27.36;100.00;100039.45;1620161;89;21571;-77
2022/06/28 06:28:35;;;;;;;38.88;25.55;;;;;;;27.72;100.00;100047.63;1655565;87;21638;-80
2022/06/28 06:31:03;;;;;;;24.20;12.43;;;;;;;27.98;100.00;100046.14;1621149;87;21105;-84
2022/06/28 06:33:48;;;;;;;43.95;24.15;;;;;;;28.07;100.00;100043.59;1657820;84;21000;-81
2022/06/28 06:36:21;;;;;;;21.60;10.00;;;;;;;28.05;100.00;100044.41;1618399;87;21663;-81
2022/06/28 06:38:49;;;;;;;23.20;12.98;;;;;;;27.86;100.00;100041.45;1657367;87;21024;-80
2022/06/28 06:41:16;;;;;;;20.85;8.75;;;;;;;27.68;100.00;100040.16;1621238;89;21037;-81
2022/06/28 06:43:43;;;;;;;19.85;6.97;;;;;;;27.63;100.00;100040.44;1655204;87;21043;-76
2022/06/28 06:46:13;;;;;;;17.40;8.45;;;;;;;27.77;100.00;100050.37;1616398;89;21132;-79
2022/06/28 06:48:41;;;;;;;16.60;8.28;;;;;;;28.01;100.00;100044.16;1655301;87;21067;-78
2022/06/28 06:51:09;;;;;;;19.48;10.10;;;;;;;28.27;100.00;100039.27;1631693;88;21050;-77
2022/06/28 06:53:36;;;;;;;62.30;31.42;;;;;;;28.69;100.00;100042.02;1640948;87;21026;-77
2022/06/28 06:56:04;;;;;;;25.05;12.23;;;;;;;28.96;100.00;100045.64;1649190;87;21045;-80
2022/06/28 06:58:32;;;;;;;44.23;29.55;;;;;;;29.03;100.00;100048.66;1648080;87;21033;-81
2022/06/28 07:00:59;;;;;;;38.30;24.70;;;;;;;29.17;100.00;100043.26;1654873;87;21124;-80
2022/06/28 07:03:28;;;;;;;62.53;44.00;;;;;;;29.43;99.59;100051.58;1653669;87;21127;-85
2022/06/28 07:05:57;;;;;;;44.88;27.98;;;;;;;29.52;94.80;100051.19;1672973;85;21082;-80
2022/06/28 07:08:26;;;;;;;109.60;74.20;;;;;;;29.67;100.00;100044.58;1640163;87;21350;-79
2022/06/28 07:10:57;;;;;;;47.10;30.55;;;;;;;30.06;90.28;100053.27;1669403;85;21049;-84
2022/06/28 07:13:26;;;;;;;26.15;16.77;;;;;;;30.15;80.10;100059.00;1667825;85;21085;-78
2022/06/28 07:15:54;;;;;;;18.32;9.03;;;;;;;30.16;81.49;100055.09;1639121;87;21005;-79
2022/06/28 07:18:22;;;;;;;39.73;26.27;;;;;;;30.33;79.49;100056.50;1651421;86;21082;-82
2022/06/28 07:20:52;;;;;;;68.20;54.70;;;;;;;30.60;75.12;100055.27;1662243;85;21126;-78
2022/06/28 07:23:19;;;;;;;21.42;14.55;;;;;;;30.76;70.40;100057.22;1666229;85;21407;-76
2022/06/28 07:25:46;;;;;;;15.18;6.10;;;;;;;30.94;66.79;100054.72;1672804;85;21024;-78
2022/06/28 07:28:13;;;;;;;13.45;5.28;;;;;;;31.16;65.27;100050.64;1648124;87;21082;-81
2022/06/28 07:30:40;;;;;;;12.15;4.90;;;;;;;31.41;64.71;100049.88;1648926;87;21006;-82
2022/06/28 07:33:07;;;;;;;12.33;5.42;;;;;;;31.60;62.95;100052.59;1688729;85;21061;-79
2022/06/28 07:35:35;;;;;;;37.30;23.65;;;;;;;31.84;60.57;100047.33;1648552;87;21029;-79
2022/06/28 07:38:02;;;;;;;21.55;9.23;;;;;;;31.90;57.41;100043.30;1688303;85;21058;-79
2022/06/28 07:40:35;;;;;;;38.02;20.48;;;;;;;31.97;55.85;100045.09;1684193;85;21090;-79
2022/06/28 07:43:05;;;;;;;36.90;20.77;;;;;;;31.89;57.67;100036.03;1684279;85;21045;-81
2022/06/28 07:45:44;;;;;;;65.32;30.82;;;;;;;32.01;60.39;100047.50;1688002;84;21094;-74
2022/06/28 07:48:13;;;;;;;50.17;27.95;;;;;;;32.14;53.72;100042.48;1687996;85;21130;-74
2022/06/28 07:53:29;;;;;;;67.82;39.15;;;;;;;32.35;57.33;100032.19;1688166;85;21331;-82
2022/06/28 07:56:04;;;;;;;44.65;23.65;;;;;;;32.49;52.54;100040.52;1663433;85;21004;-76
2022/06/28 07:58:33;;;;;;;25.57;14.15;;;;;;;32.59;57.37;100034.70;1647999;86;21587;-76
2022/06/28 08:01:01;;;;;;;23.90;11.65;;;;;;;32.91;57.25;100032.75;1647949;87;21041;-77
2022/06/28 08:03:29;;;;;;;18.32;8.30;;;;;;;33.30;56.27;100031.14;1654858;85;21523;-77
2022/06/28 08:06:00;;;;;;;11.55;5.83;;;;;;;33.53;55.06;100022.06;1651235;87;21057;-83
2022/06/28 08:08:28;;;;;;;9.63;4.20;;;;;;;33.64;51.66;100020.63;1646802;87;21542;-78
2022/06/28 08:10:59;;;;;;;20.30;6.87;;;;;;;33.59;47.38;100015.72;1651374;86;21081;-77
2022/06/28 08:13:28;;;;;;;17.10;6.45;;;;;;;33.29;47.42;100016.31;1650510;87;21072;-78
2022/06/28 08:16:01;;;;;;;33.45;14.28;;;;;;;33.27;50.26;100010.77;1648464;87;21017;-81
2022/06/28 08:18:28;;;;;;;41.95;22.58;;;;;;;33.65;51.38;100011.05;1648098;86;21149;-75
2022/06/28 08:20:55;;;;;;;16.07;7.03;;;;;;;33.86;47.10;100013.26;1648008;87;21041;-77
2022/06/28 08:23:22;;;;;;;374.88;184.35;;;;;;;34.03;46.36;100005.41;1688140;85;21513;-78
2022/06/28 08:25:55;;;;;;;152.95;77.40;;;;;;;34.17;42.46;100006.66;1688527;85;21108;-78
2022/06/28 08:28:23;;;;;;;40.50;17.57;;;;;;;33.88;42.29;100003.13;1689239;85;21101;-75
2022/06/28 08:30:49;;;;;;;44.65;29.95;;;;;;;33.77;44.05;100000.63;1688335;85;21053;-77
2022/06/28 08:33:16;;;;;;;41.02;25.48;;;;;;;33.85;41.73;100001.20;1687944;85;21069;-80
2022/06/28 08:35:43;;;;;;;19.17;9.75;;;;;;;33.99;44.31;100001.62;1688276;85;21065;-76
2022/06/28 08:38:10;;;;;;;8.25;4.67;;;;;;;34.30;43.51;100004.85;1648000;87;21539;-80
2022/06/28 08:40:37;;;;;;;17.37;6.42;;;;;;;34.64;43.55;100011.01;1648214;87;21074;-79
2022/06/28 08:43:07;;;;;;;22.93;9.23;;;;;;;35.01;43.82;100007.20;1648611;87;21082;-81
2022/06/28 08:45:35;;;;;;;604.42;292.40;;;;;;;35.27;41.08;100012.72;1648189;87;21611;-78
2022/06/28 08:48:17;;;;;;;94.90;45.63;;;;;;;35.39;39.43;100005.57;1627574;87;21093;-79
2022/06/28 08:50:48;;;;;;;26.37;12.23;;;;;;;35.51;40.81;100005.66;1645861;87;21045;-77
2022/06/28 08:53:15;;;;;;;127.65;78.45;;;;;;;35.68;39.56;100001.34;1659349;85;21558;-78
2022/06/28 08:55:42;;;;;;;79.72;50.25;;;;;;;35.76;37.38;100006.69;1689023;85;21065;-81
2022/06/28 08:58:09;;;;;;;44.70;34.08;;;;;;;35.41;35.45;100008.27;1660130;85;21093;-85
2022/06/28 09:00:38;;;;;;;29.45;15.53;;;;;;;35.10;39.17;100005.18;1688822;85;21156;-82
2022/06/28 09:03:05;;;;;;;14.47;5.72;;;;;;;35.27;39.75;100012.72;1688368;85;21038;-79
2022/06/28 09:05:32;;;;;;;13.55;4.83;;;;;;;35.13;34.94;100011.54;1647756;87;21065;-83
2022/06/28 09:07:59;;;;;;;13.88;5.62;;;;;;;34.64;35.95;100010.19;1647830;87;21002;-76
2022/06/28 09:10:26;;;;;;;5.62;3.50;;;;;;;34.37;36.83;100000.97;1647521;86;21093;-75
2022/06/28 09:13:09;;;;;;;16.90;10.08;;;;;;;34.37;38.04;100000.97;1677611;85;21492;-81
2022/06/28 09:15:54;;;;;;;11.33;3.70;;;;;;;34.50;38.51;99990.14;1666906;85;21068;-80
2022/06/28 09:18:27;;;;;;;7.15;3.20;;;;;;;34.72;37.14;99988.30;1631342;88;21046;-78
2022/06/28 09:20:56;;;;;;;51.90;20.95;;;;;;;34.64;37.70;99994.16;1604846;89;21057;-78
2022/06/28 09:23:29;;;;;;;52.48;23.20;;;;;;;34.59;36.04;99986.73;1601069;90;21082;-85
2022/06/28 09:26:06;;;;;;;42.33;23.25;;;;;;;34.55;37.89;99989.16;1555237;92;21085;-85
2022/06/28 09:28:34;;;;;;;14.30;7.25;;;;;;;34.80;39.29;99991.67;1551663;92;21153;-82
2022/06/28 09:31:26;;;;;;;15.08;4.60;;;;;;;35.14;38.74;99981.45;1550946;93;21054;-83
2022/06/28 09:34:06;;;;;;;15.40;6.58;;;;;;;35.23;36.42;99988.46;1551548;93;21139;-84
2022/06/28 09:36:36;;;;;;;12.53;4.60;;;;;;;34.94;36.99;99988.06;1551268;93;21041;-82
2022/06/28 09:39:12;;;;;;;16.05;5.90;;;;;;;34.73;36.75;99981.53;1551569;91;21085;-84
2022/06/28 09:41:52;;;;;;;11.08;4.22;;;;;;;34.73;37.78;99979.55;1526707;94;21074;-84
2022/06/28 09:44:26;;;;;;;22.75;6.95;;;;;;;34.83;38.31;99978.92;1567623;89;21042;-82
2022/06/28 09:46:54;;;;;;;4.90;2.50;;;;;;;35.16;40.08;99977.71;1501746;95;21105;-78
2022/06/28 09:49:28;;;;;;;7.58;3.47;;;;;;;35.53;36.51;99969.00;1503334;95;21596;-78
2022/06/28 09:51:57;;;;;;;7.97;2.70;;;;;;;35.65;36.79;99961.83;1501548;95;21093;-81
2022/06/28 09:54:27;;;;;;;22.58;9.83;;;;;;;35.69;34.69;99963.59;1502955;95;21606;-78
2022/06/28 09:56:56;;;;;;;22.67;8.50;;;;;;;35.64;32.71;99965.20;1503247;95;21068;-79
2022/06/28 09:59:27;;;;;;;29.45;15.88;;;;;;;35.45;34.25;99958.66;1454542;99;21197;-79
2022/06/28 10:01:55;;;;;;;27.93;13.78;;;;;;;35.30;32.69;99955.84;1454504;99;21138;-76
2022/06/28 10:04:23;;;;;;;46.58;22.37;;;;;;;35.09;35.21;99951.55;1453829;99;21212;-80
2022/06/28 10:06:50;;;;;;;18.27;7.97;;;;;;;35.17;34.30;99951.28;1454338;99;21057;-77
2022/06/28 10:09:19;;;;;;;9.00;4.03;;;;;;;35.31;34.83;99949.66;1454029;97;21085;-79
2022/06/28 10:17:39;;;;;;;53.98;37.28;;;;;;;35.43;33.02;99955.34;1434710;100;21140;-76
2022/06/28 10:20:09;;;;;;;33.67;22.50;;;;;;;35.07;32.91;99953.06;1433978;100;21203;-80
2022/06/28 10:22:37;;;;;;;30.62;19.82;;;;;;;34.62;35.12;99952.97;1446106;98;21141;-79
2022/06/28 10:25:21;;;;;;;10.88;5.03;;;;;;;34.47;34.85;99958.52;1458719;98;21593;-78
2022/06/28 10:27:50;;;;;;;28.32;17.15;;;;;;;34.49;35.82;99949.19;1462246;98;21215;-80
2022/06/28 10:30:22;;;;;;;31.95;20.32;;;;;;;34.65;36.56;99953.68;1440759;98;21436;-79
2022/06/28 10:33:02;;;;;;;10.60;5.15;;;;;;;34.78;34.70;99948.48;1399519;103;21126;-79
2022/06/28 10:35:42;;;;;;;29.45;18.75;;;;;;;34.87;35.17;99943.41;1418403;101;21213;-80
2022/06/28 10:38:14;;;;;;;39.38;23.80;;;;;;;34.92;34.52;99945.45;1475834;97;21510;-79
2022/06/28 10:40:47;;;;;;;26.35;14.28;;;;;;;34.80;33.27;99935.51;1504770;95;21124;-77
2022/06/28 10:43:29;;;;;;;18.65;5.42;;;;;;;34.69;33.11;99932.22;1531158;94;21650;-76
2022/06/28 10:46:06;;;;;;;41.75;23.42;;;;;;;34.73;33.41;99931.81;1527548;94;21202;-78
2022/06/28 10:48:59;;;;;;;117.95;77.27;;;;;;;34.75;34.24;99931.48;1536573;92;21032;-77
2022/06/28 10:51:28;;;;;;;46.83;25.55;;;;;;;34.82;33.86;99938.80;1530849;92;21134;-77
2022/06/28 10:54:07;;;;;;;36.42;20.88;;;;;;;34.62;33.32;99937.53;1535039;92;21114;-78
2022/06/28 10:56:38;;;;;;;54.25;30.68;;;;;;;34.49;34.02;99939.95;1612990;87;21043;-80
2022/06/28 10:59:14;;;;;;;171.25;104.40;;;;;;;34.68;35.44;99930.55;1630389;87;21057;-82
2022/06/28 11:01:52;;;;;;;18.73;9.90;;;;;;;34.79;36.14;99937.50;1608187;89;21054;-80
2022/06/28 11:04:24;;;;;;;25.15;14.23;;;;;;;35.11;35.61;99931.55;1591752;90;21080;-81
2022/06/28 11:07:21;;;;;;;33.80;8.18;;;;;;;35.55;35.58;99927.91;1565571;92;21160;-83
2022/06/28 11:10:05;;;;;;;15.13;3.72;;;;;;;35.91;33.76;99920.84;1565230;91;21230;-79
2022/06/28 11:12:37;;;;;;;11.70;4.22;;;;;;;36.39;33.17;99922.80;1526046;92;21633;-79
2022/06/28 11:15:12;;;;;;;18.30;8.28;;;;;;;36.60;32.59;99917.09;1538013;93;21027;-79
2022/06/28 11:17:42;;;;;;;10.65;4.47;;;;;;;36.47;29.99;99916.26;1514473;95;21177;-79
2022/06/28 11:20:14;;;;;;;11.28;4.80;;;;;;;35.95;30.88;99911.97;1499279;96;21536;-79
2022/06/28 11:22:44;;;;;;;39.80;22.82;;;;;;;35.69;32.15;99909.36;1468916;98;21687;-81
2022/06/28 11:25:16;;;;;;;34.75;29.40;;;;;;;35.49;33.16;99908.20;1499618;96;21102;-83
2022/06/28 11:27:53;;;;;;;29.30;15.70;;;;;;;35.35;33.84;99904.25;1468720;98;21203;-79
2022/06/28 11:30:23;;;;;;;18.17;8.00;;;;;;;35.39;35.00;99905.20;1498492;96;21177;-77
2022/06/28 11:32:50;;;;;;;28.85;18.02;;;;;;;35.35;35.11;99905.06;1469763;98;21625;-79
2022/06/28 11:35:25;;;;;;;19.87;10.58;;;;;;;35.30;35.79;99909.47;1506020;92;21598;-77
2022/06/28 11:37:57;;;;;;;9.53;5.08;;;;;;;35.30;37.39;99900.23;1541055;93;21111;-80